createdAt,value
2023-01-31T00:01:30.246Z,101919.03
2023-01-31T00:04:35.373Z,101921.59
2023-01-31T00:07:38.991Z,101918.94
2023-01-31T00:10:42.672Z,101898.06
2023-01-31T00:13:47.503Z,101907.56
2023-01-31T00:16:52.238Z,101910.22
2023-01-31T00:19:57.198Z,101895.44
2023-01-31T00:23:00.859Z,101887.69
2023-01-31T00:26:14.066Z,101893.66
2023-01-31T00:29:17.767Z,101885.03
2023-01-31T00:32:21.746Z,101884.84
2023-01-31T00:35:27.499Z,101887.44
2023-01-31T00:38:31.250Z,101881.31
2023-01-31T00:41:38.353Z,101891.63
2023-01-31T00:44:42.143Z,101903.75
2023-01-31T00:47:45.881Z,101906.34
2023-01-31T00:50:50.936Z,101907.28
2023-01-31T00:53:55.421Z,101902.19
2023-01-31T00:56:59.106Z,101897.16
2023-01-31T01:00:02.884Z,101888.47
2023-01-31T01:03:06.462Z,101892.00
2023-01-31T01:06:12.785Z,101892.00
2023-01-31T01:09:16.349Z,101906.03
2023-01-31T01:12:19.995Z,101900.13
2023-01-31T01:15:23.627Z,101909.59
2023-01-31T01:18:27.339Z,101904.31
2023-01-31T01:21:39.447Z,101898.28
2023-01-31T01:24:43.722Z,101900.00
2023-01-31T01:27:47.411Z,101906.91
2023-01-31T01:30:50.991Z,101906.88
2023-01-31T01:33:54.671Z,101901.66
2023-01-31T01:36:59.656Z,101906.03
2023-01-31T01:40:03.521Z,101898.25
2023-01-31T01:43:07.214Z,101900.84
2023-01-31T01:46:15.182Z,101897.41
2023-01-31T01:49:34.240Z,101899.13
2023-01-31T01:52:47.100Z,101906.06
2023-01-31T01:55:57.207Z,101906.09
2023-01-31T01:59:08.373Z,101908.59
2023-01-31T02:02:13.974Z,101923.19
2023-01-31T02:05:23.980Z,101916.31
2023-01-31T02:08:34.557Z,101911.84
2023-01-31T02:11:38.384Z,101922.25
2023-01-31T02:14:43.631Z,101916.19
2023-01-31T02:17:47.245Z,101921.31
2023-01-31T02:21:37.999Z,101949.03
2023-01-31T02:25:31.835Z,101942.94
2023-01-31T02:29:15.025Z,101943.94
2023-01-31T02:32:50.060Z,101947.50
2023-01-31T02:36:08.543Z,101951.06
2023-01-31T02:39:27.848Z,101945.06
2023-01-31T02:42:49.012Z,101939.00
2023-01-31T02:46:02.787Z,101926.91
2023-01-31T02:49:34.642Z,101932.94
2023-01-31T02:52:49.724Z,101926.03
2023-01-31T02:56:15.085Z,101921.72
2023-01-31T02:59:25.927Z,101924.34
2023-01-31T03:02:30.351Z,101917.44
2023-01-31T03:05:36.460Z,101908.78
2023-01-31T03:08:43.981Z,101909.59
2023-01-31T03:12:02.353Z,101917.41
2023-01-31T03:15:48.379Z,101901.03
2023-01-31T03:19:02.129Z,101904.50
2023-01-31T03:22:16.441Z,101888.06
2023-01-31T03:25:25.110Z,101901.06
2023-01-31T03:28:32.887Z,101892.47
2023-01-31T03:31:43.313Z,101900.25
2023-01-31T03:34:47.985Z,101896.81
2023-01-31T03:38:06.183Z,101895.13
2023-01-31T03:41:20.155Z,101892.53
2023-01-31T03:44:37.101Z,101890.84
2023-01-31T03:47:44.673Z,101888.13
2023-01-31T03:50:57.734Z,101888.94
2023-01-31T03:54:09.416Z,101898.38
2023-01-31T03:57:22.765Z,101897.41
2023-01-31T04:00:29.601Z,101891.25
2023-01-31T04:03:42.718Z,101892.09
2023-01-31T04:06:46.439Z,101895.47
2023-01-31T04:09:51.720Z,101891.22
2023-01-31T04:12:55.449Z,101888.63
2023-01-31T04:15:59.180Z,101895.50
2023-01-31T04:19:02.909Z,101885.19
2023-01-31T04:22:06.635Z,101902.44
2023-01-31T04:25:12.629Z,101907.66
2023-01-31T04:28:16.194Z,101906.88
2023-01-31T04:31:19.868Z,101899.06
2023-01-31T04:34:23.580Z,101893.88
2023-01-31T04:37:27.177Z,101895.59
2023-01-31T04:40:32.155Z,101898.16
2023-01-31T04:43:35.733Z,101896.44
2023-01-31T04:46:39.639Z,101892.91
2023-01-31T04:49:44.247Z,101891.13
2023-01-31T04:52:51.501Z,101893.72
2023-01-31T04:55:57.481Z,101892.78
2023-01-31T04:59:01.563Z,101890.19
2023-01-31T05:02:05.150Z,101886.72
2023-01-31T05:05:10.237Z,101875.50
2023-01-31T05:08:13.832Z,101866.91
2023-01-31T05:11:18.909Z,101885.00
2023-01-31T05:14:22.545Z,101869.50
2023-01-31T05:17:29.811Z,101872.94
2023-01-31T05:20:39.687Z,101864.34
2023-01-31T05:23:43.450Z,101863.50
2023-01-31T05:26:50.663Z,101861.78
2023-01-31T05:29:54.879Z,101854.91
2023-01-31T05:32:58.650Z,101858.34
2023-01-31T05:36:03.700Z,101865.28
2023-01-31T05:39:07.345Z,101865.31
2023-01-31T05:42:12.761Z,101855.81
2023-01-31T05:45:16.791Z,101849.78
2023-01-31T05:48:20.527Z,101859.31
2023-01-31T05:51:24.189Z,101850.72
2023-01-31T05:54:27.823Z,101854.16
2023-01-31T05:57:33.373Z,101846.44
2023-01-31T06:00:37.961Z,101843.84
2023-01-31T06:03:41.492Z,101843.00
2023-01-31T06:06:46.133Z,101843.88
2023-01-31T06:09:49.814Z,101834.41
2023-01-31T06:12:55.100Z,101824.94
2023-01-31T06:15:59.332Z,101825.03
2023-01-31T06:19:03.123Z,101813.84
2023-01-31T06:22:07.012Z,101823.34
2023-01-31T06:25:11.798Z,101813.06
2023-01-31T06:28:16.878Z,101805.28
2023-01-31T06:31:21.094Z,101801.88
2023-01-31T06:34:24.892Z,101807.94
2023-01-31T06:37:28.570Z,101791.53
2023-01-31T06:40:32.755Z,101787.25
2023-01-31T06:43:37.863Z,101778.56
2023-01-31T06:46:41.706Z,101771.69
2023-01-31T06:49:45.318Z,101760.50
2023-01-31T06:52:49.116Z,101763.09
2023-01-31T06:55:52.826Z,101749.41
2023-01-31T06:58:57.938Z,101746.22
2023-01-31T07:02:01.791Z,101739.91
2023-01-31T07:05:06.235Z,101751.16
2023-01-31T07:08:10.046Z,101725.22
2023-01-31T07:11:13.834Z,101729.56
2023-01-31T07:14:18.901Z,101732.16
2023-01-31T07:17:23.047Z,101734.78
2023-01-31T07:20:26.915Z,101723.56
2023-01-31T07:23:31.151Z,101721.78
2023-01-31T07:26:35.103Z,101718.44
2023-01-31T07:29:40.177Z,101716.78
2023-01-31T07:32:43.978Z,101716.69
2023-01-31T07:35:47.587Z,101708.00
2023-01-31T07:38:51.171Z,101698.44
2023-01-31T07:41:54.757Z,101699.34
2023-01-31T07:45:04.712Z,101706.25
2023-01-31T07:48:23.689Z,101696.75
2023-01-31T07:51:27.469Z,101697.59
2023-01-31T07:54:31.185Z,101688.13
2023-01-31T07:57:34.889Z,101689.00
2023-01-31T08:00:57.132Z,101685.56
2023-01-31T08:04:18.271Z,101663.09
2023-01-31T08:07:26.298Z,101644.94
2023-01-31T08:10:30.827Z,101638.91
2023-01-31T08:13:35.537Z,101630.22
2023-01-31T08:16:40.657Z,101619.00
2023-01-31T08:19:44.870Z,101613.88
2023-01-31T08:22:48.641Z,101599.16
2023-01-31T08:25:52.391Z,101587.06
2023-01-31T08:28:56.064Z,101587.06
2023-01-31T08:32:01.896Z,101575.81
2023-01-31T08:35:07.618Z,101585.31
2023-01-31T08:38:16.550Z,101573.22
2023-01-31T08:41:25.056Z,101563.69
2023-01-31T08:44:29.046Z,101571.50
2023-01-31T08:47:34.131Z,101579.28
2023-01-31T08:50:40.214Z,101571.53
2023-01-31T08:53:46.233Z,101566.44
2023-01-31T08:56:49.945Z,101568.97
2023-01-31T08:59:53.519Z,101555.09
2023-01-31T09:03:01.685Z,101558.59
2023-01-31T09:06:11.992Z,101548.19
2023-01-31T09:09:15.570Z,101549.94
2023-01-31T09:12:19.272Z,101560.34
2023-01-31T09:15:28.906Z,101549.94
2023-01-31T09:18:35.763Z,101549.97
2023-01-31T09:21:39.675Z,101547.34
2023-01-31T09:24:43.280Z,101549.09
2023-01-31T09:27:46.884Z,101536.09
2023-01-31T09:30:53.583Z,101542.16
2023-01-31T09:33:58.769Z,101543.03
2023-01-31T09:37:02.353Z,101536.94
2023-01-31T09:40:07.241Z,101538.69
2023-01-31T09:43:14.215Z,101531.78
2023-01-31T09:46:25.219Z,101534.34
2023-01-31T09:49:44.983Z,101524.84
2023-01-31T09:52:49.259Z,101521.38
2023-01-31T09:56:01.252Z,101516.19
2023-01-31T09:59:19.684Z,101495.41
2023-01-31T10:03:18.408Z,101492.78
2023-01-31T10:06:31.713Z,101486.72
2023-01-31T10:09:43.917Z,101479.81
2023-01-31T10:12:55.627Z,101482.41
2023-01-31T10:16:07.795Z,101486.75
2023-01-31T10:19:18.328Z,101469.41
2023-01-31T10:22:35.597Z,101466.81
2023-01-31T10:25:48.762Z,101467.66
2023-01-31T10:29:01.600Z,101472.84
2023-01-31T10:32:15.940Z,101479.78
2023-01-31T10:35:28.019Z,101472.00
2023-01-31T10:38:42.008Z,101469.41
2023-01-31T10:42:05.225Z,101464.22
2023-01-31T10:45:19.793Z,101465.94
2023-01-31T10:48:26.934Z,101447.75
2023-01-31T10:52:04.572Z,101436.47
2023-01-31T10:55:37.249Z,101435.59
2023-01-31T10:58:41.418Z,101426.94
2023-01-31T11:01:45.045Z,101434.72
2023-01-31T11:04:51.936Z,101415.66
2023-01-31T11:07:57.556Z,101408.75
2023-01-31T11:11:09.917Z,101413.09
2023-01-31T11:14:20.304Z,101412.19
2023-01-31T11:17:25.764Z,101415.69
2023-01-31T11:20:32.866Z,101421.72
2023-01-31T11:23:38.227Z,101413.06
2023-01-31T11:26:53.523Z,101408.72
2023-01-31T11:30:00.263Z,101417.41
2023-01-31T11:33:04.178Z,101401.75
2023-01-31T11:36:13.929Z,101398.31
2023-01-31T11:39:32.658Z,101397.44
2023-01-31T11:42:52.795Z,101390.50
2023-01-31T11:46:00.416Z,101378.34
2023-01-31T11:49:14.591Z,101382.69
2023-01-31T11:52:23.002Z,101373.97
2023-01-31T11:55:28.220Z,101380.91
2023-01-31T11:58:38.222Z,101374.81
2023-01-31T12:01:49.916Z,101364.41
2023-01-31T12:04:54.114Z,101370.47
2023-01-31T12:07:57.851Z,101366.13
2023-01-31T12:11:06.126Z,101361.75
2023-01-31T12:14:17.255Z,101358.34
2023-01-31T12:17:21.820Z,101360.88
2023-01-31T12:20:40.562Z,101362.59
2023-01-31T12:24:01.863Z,101358.25
2023-01-31T12:27:21.237Z,101366.06
2023-01-31T12:31:04.366Z,101361.72
2023-01-31T12:34:32.497Z,101366.94
2023-01-31T12:37:56.448Z,101359.09
2023-01-31T12:41:19.746Z,101366.91
2023-01-31T12:44:46.663Z,101350.38
2023-01-31T12:48:21.564Z,101325.22
2023-01-31T12:51:41.195Z,101345.13
2023-01-31T12:55:04.408Z,101339.03
2023-01-31T12:58:34.448Z,101343.34
2023-01-31T13:01:49.823Z,101322.53
2023-01-31T13:05:04.732Z,101318.19
2023-01-31T13:08:18.057Z,101318.16
2023-01-31T13:11:27.379Z,101312.94
2023-01-31T13:14:38.695Z,101313.75
2023-01-31T13:17:44.766Z,101311.22
2023-01-31T13:20:57.113Z,101312.94
2023-01-31T13:24:07.905Z,101308.59
2023-01-31T13:27:22.980Z,101293.84
2023-01-31T13:30:42.895Z,101300.75
2023-01-31T13:33:53.694Z,101293.81
2023-01-31T13:37:04.263Z,101286.00
2023-01-31T13:40:21.577Z,101292.03
2023-01-31T13:43:25.338Z,101279.84
2023-01-31T13:46:37.679Z,101287.66
2023-01-31T13:49:48.800Z,101291.16
2023-01-31T13:52:58.454Z,101271.19
2023-01-31T13:56:05.634Z,101275.53
2023-01-31T13:59:12.138Z,101278.97
2023-01-31T14:02:21.213Z,101271.16
2023-01-31T14:05:55.352Z,101264.19
2023-01-31T14:09:01.934Z,101273.72
2023-01-31T14:12:35.695Z,101281.53
2023-01-31T14:15:51.307Z,101276.31
2023-01-31T14:18:54.946Z,101276.28
2023-01-31T14:22:15.616Z,101278.00
2023-01-31T14:25:43.707Z,101275.34
2023-01-31T14:28:48.107Z,101277.03
2023-01-31T14:31:55.858Z,101281.31
2023-01-31T14:35:07.631Z,101268.31
2023-01-31T14:38:24.368Z,101276.06
2023-01-31T14:41:52.546Z,101278.69
2023-01-31T14:45:24.826Z,101273.47
2023-01-31T14:49:12.933Z,101271.69
2023-01-31T14:52:52.919Z,101266.41
2023-01-31T14:56:28.019Z,101269.03
2023-01-31T14:59:38.939Z,101262.97
2023-01-31T15:02:51.240Z,101257.72
2023-01-31T15:06:07.032Z,101257.63
2023-01-31T15:09:39.793Z,101256.75
2023-01-31T15:13:00.900Z,101254.09
2023-01-31T15:16:12.042Z,101263.66
2023-01-31T15:19:20.223Z,101245.41
2023-01-31T15:22:25.743Z,101264.50
2023-01-31T15:25:37.824Z,101262.69
2023-01-31T15:28:45.829Z,101258.38
2023-01-31T15:31:55.005Z,101257.47
2023-01-31T15:35:08.668Z,101262.72
2023-01-31T15:38:28.301Z,101261.81
2023-01-31T15:41:40.027Z,101263.53
2023-01-31T15:44:43.722Z,101270.41
2023-01-31T15:48:01.336Z,101261.72
2023-01-31T15:51:05.301Z,101289.47
2023-01-31T15:54:09.526Z,101284.31
2023-01-31T15:57:18.320Z,101294.69
2023-01-31T16:00:27.633Z,101294.66
2023-01-31T16:03:38.061Z,101292.16
2023-01-31T16:06:42.045Z,101299.13
2023-01-31T16:09:46.460Z,101282.63
2023-01-31T16:12:53.252Z,101292.31
2023-01-31T16:15:57.496Z,101301.06
2023-01-31T16:19:04.009Z,101290.63
2023-01-31T16:22:27.885Z,101286.31
2023-01-31T16:25:37.341Z,101295.91
2023-01-31T16:28:46.448Z,101289.03
2023-01-31T16:31:53.831Z,101296.00
2023-01-31T16:35:03.279Z,101293.34
2023-01-31T16:38:17.725Z,101296.75
2023-01-31T16:41:46.549Z,101301.94
2023-01-31T16:44:51.459Z,101293.31
2023-01-31T16:47:56.480Z,101296.72
2023-01-31T16:51:25.006Z,101303.69
2023-01-31T16:54:31.842Z,101307.19
2023-01-31T16:57:39.201Z,101307.13
2023-01-31T17:00:42.914Z,101317.66
2023-01-31T17:03:48.702Z,101317.66
2023-01-31T17:07:06.553Z,101314.22
2023-01-31T17:10:19.159Z,101323.81
2023-01-31T17:13:26.252Z,101335.09
2023-01-31T17:16:30.238Z,101342.94
2023-01-31T17:19:33.881Z,101349.00
2023-01-31T17:22:38.845Z,101349.00
2023-01-31T17:25:43.597Z,101362.91
2023-01-31T17:29:00.732Z,101368.13
2023-01-31T17:32:05.131Z,101367.22
2023-01-31T17:35:20.301Z,101362.91
2023-01-31T17:38:27.176Z,101363.06
2023-01-31T17:41:30.850Z,101378.63
2023-01-31T17:44:34.498Z,101363.84
2023-01-31T17:47:38.514Z,101370.88
2023-01-31T17:50:43.482Z,101369.19
2023-01-31T17:53:50.288Z,101369.25
2023-01-31T17:56:54.420Z,101381.41
2023-01-31T17:59:57.958Z,101390.09
2023-01-31T18:03:01.624Z,101396.22
2023-01-31T18:06:07.101Z,101368.50
2023-01-31T18:09:12.930Z,101384.09
2023-01-31T18:12:16.525Z,101374.53
2023-01-31T18:15:40.227Z,101376.31
2023-01-31T18:18:44.889Z,101382.41
2023-01-31T18:21:54.974Z,101372.78
2023-01-31T18:25:00.598Z,101388.47
2023-01-31T18:28:04.419Z,101385.00
2023-01-31T18:31:13.833Z,101380.69
2023-01-31T18:34:18.185Z,101386.72
2023-01-31T18:37:21.873Z,101392.00
2023-01-31T18:40:26.829Z,101405.03
2023-01-31T18:43:31.653Z,101397.22
2023-01-31T18:46:35.339Z,101399.81
2023-01-31T18:49:39.075Z,101391.13
2023-01-31T18:52:43.985Z,101385.06
2023-01-31T18:55:49.006Z,101392.06
2023-01-31T18:58:54.553Z,101396.38
2023-01-31T19:01:58.221Z,101392.97
2023-01-31T19:05:02.154Z,101390.38
2023-01-31T19:08:06.318Z,101387.78
2023-01-31T19:11:14.134Z,101394.75
2023-01-31T19:14:18.116Z,101386.06
2023-01-31T19:17:21.776Z,101390.41
2023-01-31T19:20:26.699Z,101394.72
2023-01-31T19:23:30.780Z,101391.25
2023-01-31T19:26:37.194Z,101391.31
2023-01-31T19:29:41.685Z,101385.22
2023-01-31T19:32:45.451Z,101374.84
2023-01-31T19:35:49.237Z,101381.78
2023-01-31T19:38:53.360Z,101375.72
2023-01-31T19:41:58.796Z,101390.50
2023-01-31T19:45:02.314Z,101400.00
2023-01-31T19:48:06.818Z,101411.25
2023-01-31T19:51:13.383Z,101390.41
2023-01-31T19:54:19.327Z,101416.50
2023-01-31T19:57:24.711Z,101413.06
2023-01-31T20:00:28.376Z,101412.19
2023-01-31T20:03:32.222Z,101417.34
2023-01-31T20:06:36.331Z,101408.63
2023-01-31T20:09:41.900Z,101419.91
2023-01-31T20:12:46.913Z,101418.19
2023-01-31T20:15:58.433Z,101411.28
2023-01-31T20:19:03.844Z,101415.59
2023-01-31T20:22:07.519Z,101419.06
2023-01-31T20:25:11.917Z,101404.31
2023-01-31T20:28:17.094Z,101411.28
2023-01-31T20:31:21.003Z,101400.00
2023-01-31T20:34:25.127Z,101400.88
2023-01-31T20:37:29.468Z,101400.88
2023-01-31T20:40:33.098Z,101398.28
2023-01-31T20:43:39.217Z,101395.66
2023-01-31T20:46:42.734Z,101397.38
2023-01-31T20:49:46.359Z,101386.09
2023-01-31T20:52:51.471Z,101378.31
2023-01-31T20:56:01.011Z,101396.56
2023-01-31T20:59:05.992Z,101388.72
2023-01-31T21:02:11.258Z,101377.47
2023-01-31T21:05:14.944Z,101386.16
2023-01-31T21:08:18.765Z,101393.09
2023-01-31T21:11:22.499Z,101401.75
2023-01-31T21:14:27.506Z,101393.94
2023-01-31T21:17:39.841Z,101390.53
2023-01-31T21:20:43.828Z,101394.84
2023-01-31T21:23:47.472Z,101400.94
2023-01-31T21:26:51.179Z,101416.56
2023-01-31T21:29:56.166Z,101407.84
2023-01-31T21:32:59.777Z,101398.31
2023-01-31T21:36:09.662Z,101406.13
2023-01-31T21:39:13.629Z,101394.84
2023-01-31T21:42:29.977Z,101396.56
2023-01-31T21:45:51.620Z,101406.09
2023-01-31T21:48:56.346Z,101394.81
2023-01-31T21:52:00.042Z,101394.78
2023-01-31T21:55:03.624Z,101401.75
2023-01-31T21:58:07.705Z,101380.97
2023-01-31T22:01:15.747Z,101406.94
2023-01-31T22:04:23.520Z,101400.03
2023-01-31T22:07:27.187Z,101406.13
2023-01-31T22:10:30.768Z,101420.00
2023-01-31T22:13:35.316Z,101406.97
2023-01-31T22:16:41.217Z,101399.19
2023-01-31T22:19:44.905Z,101393.13
2023-01-31T22:22:48.825Z,101402.66
2023-01-31T22:25:53.692Z,101393.09
2023-01-31T22:29:00.677Z,101396.56
2023-01-31T22:32:06.170Z,101391.34
2023-01-31T22:35:11.062Z,101393.09
2023-01-31T22:38:15.147Z,101393.09
2023-01-31T22:41:20.226Z,101387.03
2023-01-31T22:44:24.098Z,101388.81
2023-01-31T22:47:29.152Z,101400.06
2023-01-31T22:50:32.841Z,101394.84
2023-01-31T22:53:38.583Z,101392.28
2023-01-31T22:56:42.336Z,101392.28
2023-01-31T22:59:45.995Z,101377.50
2023-01-31T23:02:51.318Z,101381.84
2023-01-31T23:05:55.040Z,101375.81
2023-01-31T23:08:59.080Z,101382.72
2023-01-31T23:12:02.738Z,101380.13
2023-01-31T23:15:07.361Z,101375.81
2023-01-31T23:18:17.256Z,101379.28
2023-01-31T23:21:21.214Z,101368.00
2023-01-31T23:24:24.888Z,101379.28
2023-01-31T23:27:28.996Z,101371.47
2023-01-31T23:30:34.146Z,101362.84
2023-01-31T23:33:39.185Z,101362.84
2023-01-31T23:36:42.764Z,101361.09
2023-01-31T23:39:47.366Z,101357.63
2023-01-31T23:42:51.091Z,101361.09
2023-01-31T23:45:54.739Z,101360.28
2023-01-31T23:48:59.865Z,101373.28
2023-01-31T23:52:03.873Z,101361.13
2023-01-31T23:55:09.072Z,101357.66
2023-01-31T23:58:12.740Z,101350.75
